Time;durP1;ratioP1;P1;durP2;ratioP2;P2;SDS_P1;SDS_P2;PMS_P1;PMS_P2;Temp;Humidity;BMP_temperature;BMP_pressure;BME280_temperature;BME280_humidity;BME280_pressure;Samples;Min_cycle;Max_cycle;Signal;HPM_P1;HPM_P2
2023/10/06 00:01:45;;;;;;;7.45;4.20;;;23.60;57.10;;;;;;7680713;22;80591;-64
2023/10/06 00:04:46;;;;;;;7.93;4.68;;;23.60;57.20;;;;;;7679892;22;80023;-66
2023/10/06 00:07:46;;;;;;;11.00;5.22;;;23.50;57.10;;;;;;7680155;22;80362;-67
2023/10/06 00:10:50;;;;;;;9.77;5.13;;;23.50;57.10;;;;;;7679675;22;80122;-67
2023/10/06 00:14:00;;;;;;;9.40;4.88;;;23.50;57.10;;;;;;7679533;22;80449;-67
2023/10/06 00:17:01;;;;;;;6.28;3.95;;;23.60;57.20;;;;;;7654269;22;80405;-68
2023/10/06 00:20:05;;;;;;;7.53;4.40;;;23.50;57.20;;;;;;7674428;22;80678;-68
2023/10/06 00:23:07;;;;;;;7.95;4.70;;;23.50;57.20;;;;;;7652424;22;80632;-67
2023/10/06 00:26:10;;;;;;;7.05;3.80;;;23.50;57.30;;;;;;7678876;22;80374;-66
2023/10/06 00:29:21;;;;;;;7.13;4.03;;;23.50;57.20;;;;;;7651906;22;80448;-65
2023/10/06 00:32:21;;;;;;;7.60;4.70;;;23.50;57.30;;;;;;7678845;22;80704;-65
2023/10/06 00:35:30;;;;;;;7.75;4.28;;;23.50;57.30;;;;;;7652265;22;82948;-65
2023/10/06 00:38:32;;;;;;;9.38;4.10;;;23.50;57.40;;;;;;7679356;22;80399;-65
2023/10/06 00:41:35;;;;;;;7.20;4.10;;;23.50;57.40;;;;;;7677574;22;80319;-66
2023/10/06 00:44:35;;;;;;;8.15;4.25;;;23.60;57.50;;;;;;7678802;22;80868;-64
2023/10/06 00:47:38;;;;;;;11.00;4.60;;;23.50;57.50;;;;;;7653436;22;83453;-68
2023/10/06 00:50:39;;;;;;;7.25;3.63;;;23.50;57.50;;;;;;7652408;22;82981;-70
2023/10/06 00:53:39;;;;;;;7.68;4.30;;;23.60;57.70;;;;;;7681201;22;80774;-66
2023/10/06 00:56:40;;;;;;;10.02;4.50;;;23.60;57.80;;;;;;7677057;22;80697;-68
2023/10/06 00:59:41;;;;;;;6.75;3.90;;;23.60;57.60;;;;;;7679634;22;83151;-69
2023/10/06 01:02:43;;;;;;;7.55;3.70;;;23.60;57.60;;;;;;7679167;22;80158;-69
2023/10/06 01:05:46;;;;;;;7.30;3.92;;;23.60;57.60;;;;;;7653441;22;87780;-67
2023/10/06 01:08:53;;;;;;;8.93;4.22;;;23.60;57.50;;;;;;7678307;22;80241;-55
2023/10/06 01:11:55;;;;;;;8.07;4.00;;;23.50;57.40;;;;;;7673638;22;85447;-57
2023/10/06 01:18:24;;;;;;;7.70;3.80;;;23.50;57.40;;;;;;7652679;22;81566;-53
2023/10/06 01:21:28;;;;;;;7.90;3.78;;;23.50;57.60;;;;;;7659807;22;80793;-51
2023/10/06 01:24:29;;;;;;;6.47;4.00;;;23.50;57.50;;;;;;7679432;22;80726;-53
2023/10/06 01:27:30;;;;;;;6.90;3.45;;;23.50;57.40;;;;;;7676520;22;81576;-50
2023/10/06 01:30:30;;;;;;;8.00;3.97;;;23.50;57.40;;;;;;7677188;22;83077;-49
2023/10/06 01:33:31;;;;;;;5.95;3.83;;;23.50;57.50;;;;;;7678653;22;80270;-50
2023/10/06 01:36:33;;;;;;;5.72;3.78;;;23.50;58.10;;;;;;7678294;22;80781;-47
2023/10/06 01:39:35;;;;;;;6.05;3.22;;;23.50;57.50;;;;;;7678239;22;81063;-55
2023/10/06 01:42:36;;;;;;;5.90;3.55;;;23.50;57.60;;;;;;7679140;22;80343;-48
2023/10/06 01:45:43;;;;;;;6.75;3.42;;;23.50;57.60;;;;;;7678177;22;80238;-47
2023/10/06 01:48:44;;;;;;;5.88;3.30;;;23.50;57.60;;;;;;7679153;22;80181;-48
2023/10/06 01:51:45;;;;;;;6.55;3.47;;;23.50;57.60;;;;;;7677704;22;80396;-49
2023/10/06 01:54:45;;;;;;;5.85;3.85;;;23.50;57.60;;;;;;7678555;22;80616;-49
2023/10/06 01:57:47;;;;;;;5.82;3.38;;;23.50;57.60;;;;;;7679808;22;80466;-52
2023/10/06 02:00:48;;;;;;;7.22;3.67;;;23.50;57.60;;;;;;7680762;22;80203;-50
2023/10/06 02:03:48;;;;;;;8.25;3.70;;;23.50;57.60;;;;;;7677391;22;82981;-52
2023/10/06 02:06:51;;;;;;;7.13;3.40;;;23.50;57.70;;;;;;7679803;22;81009;-49
2023/10/06 02:09:51;;;;;;;6.50;3.55;;;23.50;57.70;;;;;;7677235;22;82956;-49
2023/10/06 02:12:52;;;;;;;7.30;3.75;;;23.50;57.90;;;;;;7677735;22;83251;-48
2023/10/06 02:15:56;;;;;;;9.93;4.28;;;23.50;57.70;;;;;;7679814;22;81579;-51
2023/10/06 02:18:57;;;;;;;6.38;3.60;;;23.50;57.70;;;;;;7679686;22;80129;-48
2023/10/06 02:21:57;;;;;;;9.27;4.30;;;23.50;57.90;;;;;;7679818;22;82158;-71
2023/10/06 02:25:01;;;;;;;5.55;3.22;;;23.50;57.80;;;;;;7652764;22;82148;-67
2023/10/06 02:28:05;;;;;;;6.25;3.63;;;23.50;57.80;;;;;;7680201;22;80405;-67
2023/10/06 02:31:07;;;;;;;6.72;3.78;;;23.50;57.70;;;;;;7654907;22;80433;-67
2023/10/06 02:34:14;;;;;;;6.13;3.28;;;23.50;57.90;;;;;;7681085;22;80947;-67
2023/10/06 02:37:22;;;;;;;6.50;3.40;;;23.50;57.80;;;;;;7654565;22;83435;-66
2023/10/06 02:40:31;;;;;;;8.43;4.15;;;23.50;57.80;;;;;;7680336;22;80409;-69
2023/10/06 02:43:33;;;;;;;6.78;3.78;;;23.50;57.80;;;;;;7681436;22;80926;-67
2023/10/06 02:46:36;;;;;;;5.53;3.17;;;23.50;57.80;;;;;;7680970;22;80782;-69
2023/10/06 02:49:40;;;;;;;6.65;3.67;;;23.40;57.90;;;;;;7682005;22;80249;-69
2023/10/06 02:52:45;;;;;;;5.13;3.30;;;23.40;57.70;;;;;;7653261;22;82607;-67
2023/10/06 02:55:45;;;;;;;7.93;3.92;;;23.40;57.70;;;;;;7681234;22;80500;-68
2023/10/06 02:58:46;;;;;;;6.82;3.70;;;23.50;57.80;;;;;;7678060;22;81580;-63
2023/10/06 03:01:51;;;;;;;6.63;3.60;;;23.50;57.90;;;;;;7650258;22;83966;-61
2023/10/06 03:05:01;;;;;;;6.43;3.58;;;23.40;58.00;;;;;;7679998;22;80508;-60
2023/10/06 03:08:11;;;;;;;9.25;3.50;;;23.40;57.90;;;;;;7679535;22;81084;-62
2023/10/06 03:11:22;;;;;;;9.77;4.05;;;23.40;57.80;;;;;;7649597;22;82120;-61
2023/10/06 03:14:37;;;;;;;5.93;2.75;;;23.50;58.00;;;;;;7653823;22;82251;-61
2023/10/06 03:17:39;;;;;;;7.68;3.88;;;23.50;57.90;;;;;;7679835;22;80612;-49
2023/10/06 03:20:41;;;;;;;7.82;3.35;;;23.40;57.70;;;;;;7678829;22;80437;-47
2023/10/06 03:23:47;;;;;;;6.32;3.30;;;23.40;57.70;;;;;;7652540;22;83131;-49
2023/10/06 03:26:51;;;;;;;7.03;3.90;;;23.40;57.60;;;;;;7652432;22;83703;-50
2023/10/06 03:29:55;;;;;;;7.38;3.15;;;23.30;57.50;;;;;;7652337;22;83360;-49
2023/10/06 03:32:58;;;;;;;5.70;3.47;;;23.40;57.60;;;;;;7678558;22;85412;-53
2023/10/06 03:35:58;;;;;;;7.30;3.65;;;23.40;57.70;;;;;;7679468;22;80651;-48
2023/10/06 03:39:06;;;;;;;4.88;3.17;;;23.40;57.70;;;;;;7652100;22;82814;-51
2023/10/06 03:42:11;;;;;;;5.55;3.42;;;23.30;57.80;;;;;;7652219;22;83382;-48
2023/10/06 03:45:28;;;;;;;7.28;3.38;;;23.30;57.90;;;;;;7650111;22;82104;-52
2023/10/06 03:48:29;;;;;;;6.40;3.40;;;23.40;58.00;;;;;;7652024;22;83255;-52
2023/10/06 03:51:40;;;;;;;6.50;3.45;;;23.40;58.00;;;;;;7649504;22;81803;-58
2023/10/06 03:54:41;;;;;;;4.88;3.25;;;23.40;58.50;;;;;;7680499;22;80857;-53
2023/10/06 03:57:42;;;;;;;6.53;3.25;;;23.40;58.40;;;;;;7678828;22;80354;-54
2023/10/06 04:00:49;;;;;;;7.60;4.07;;;23.40;58.80;;;;;;7679715;22;80936;-56
2023/10/06 04:03:50;;;;;;;7.70;3.70;;;23.50;59.10;;;;;;7678770;22;80767;-56
2023/10/06 04:06:50;;;;;;;10.55;5.25;;;23.60;59.40;;;;;;7679376;22;80169;-51
2023/10/06 04:09:51;;;;;;;7.22;4.72;;;23.60;59.00;;;;;;7678802;22;80717;-55
2023/10/06 04:12:54;;;;;;;14.77;4.40;;;23.70;59.00;;;;;;7678164;22;80283;-51
2023/10/06 04:15:56;;;;;;;7.53;3.08;;;23.70;59.30;;;;;;7677942;22;80796;-51
2023/10/06 04:18:57;;;;;;;8.77;3.58;;;23.70;59.00;;;;;;7676566;22;80942;-45
2023/10/06 04:21:58;;;;;;;9.10;3.55;;;23.70;59.20;;;;;;7676340;22;80693;-51
2023/10/06 04:24:59;;;;;;;8.13;3.78;;;23.70;59.00;;;;;;7677217;22;80804;-50
2023/10/06 04:28:00;;;;;;;9.63;3.97;;;23.70;58.80;;;;;;7678190;22;80217;-46
2023/10/06 04:31:01;;;;;;;16.73;4.10;;;23.70;59.10;;;;;;7678205;22;80796;-59
2023/10/06 04:34:01;;;;;;;7.63;3.75;;;23.70;59.00;;;;;;7678971;22;80365;-60
2023/10/06 04:37:03;;;;;;;13.75;3.90;;;23.60;58.70;;;;;;7677418;22;80660;-62
2023/10/06 04:40:06;;;;;;;15.82;3.88;;;23.60;58.80;;;;;;7677492;22;80536;-65
2023/10/06 04:43:06;;;;;;;15.15;3.90;;;23.60;58.70;;;;;;7677615;22;80510;-65
2023/10/06 04:46:07;;;;;;;16.45;4.25;;;23.50;58.70;;;;;;7677095;22;80490;-64
2023/10/06 04:49:08;;;;;;;9.80;3.95;;;23.40;58.60;;;;;;7677490;22;81385;-68
2023/10/06 04:52:08;;;;;;;11.00;4.53;;;23.40;58.50;;;;;;7676495;22;80334;-68
2023/10/06 04:55:13;;;;;;;6.82;3.08;;;23.30;58.50;;;;;;7676297;22;80535;-65
2023/10/06 04:58:14;;;;;;;8.77;3.53;;;23.30;58.40;;;;;;7676179;22;80659;-68
2023/10/06 05:01:16;;;;;;;8.18;3.45;;;23.20;58.40;;;;;;7666636;22;81186;-63
2023/10/06 05:04:16;;;;;;;8.30;3.60;;;23.20;58.30;;;;;;7633668;22;82370;-66
2023/10/06 05:07:17;;;;;;;9.55;3.40;;;23.20;58.20;;;;;;7656560;22;80625;-58
2023/10/06 05:10:27;;;;;;;7.32;4.00;;;23.20;58.20;;;;;;7667958;22;80913;-58
2023/10/06 05:13:27;;;;;;;9.20;3.47;;;23.10;58.20;;;;;;7675873;22;80343;-59
2023/10/06 05:16:28;;;;;;;7.88;3.80;;;23.10;58.10;;;;;;7676667;22;81012;-58
2023/10/06 05:19:28;;;;;;;8.27;3.70;;;23.10;58.10;;;;;;7676673;22;80795;-58
2023/10/06 05:22:29;;;;;;;7.45;3.50;;;23.10;58.00;;;;;;7678082;22;80276;-59
2023/10/06 05:25:30;;;;;;;10.65;3.92;;;23.10;58.00;;;;;;7677726;22;80746;-59
2023/10/06 05:28:31;;;;;;;8.43;3.97;;;23.10;58.00;;;;;;7678511;22;80765;-57
2023/10/06 05:31:33;;;;;;;8.50;4.55;;;23.00;58.20;;;;;;7674857;22;80288;-55
2023/10/06 05:34:34;;;;;;;9.93;4.78;;;23.00;56.70;;;;;;7677601;22;80483;-58
2023/10/06 05:37:34;;;;;;;13.30;5.10;;;22.80;56.30;;;;;;7676345;22;80312;-58
2023/10/06 05:40:35;;;;;;;12.80;5.22;;;22.70;56.80;;;;;;7677307;22;80951;-57
2023/10/06 05:43:36;;;;;;;10.13;4.65;;;22.60;56.10;;;;;;7676077;22;80946;-55
2023/10/06 05:46:37;;;;;;;13.77;6.47;;;22.50;56.40;;;;;;7676459;22;80799;-55
2023/10/06 05:49:45;;;;;;;11.57;5.93;;;22.40;56.40;;;;;;7676450;22;81405;-57
2023/10/06 05:52:51;;;;;;;13.82;5.53;;;22.40;56.80;;;;;;7677404;22;80400;-58
2023/10/06 05:55:52;;;;;;;9.35;4.85;;;22.30;56.60;;;;;;7676465;22;80439;-59
2023/10/06 05:58:53;;;;;;;14.32;5.35;;;22.30;56.60;;;;;;7604543;22;80873;-58
2023/10/06 06:01:56;;;;;;;17.00;5.55;;;22.40;57.10;;;;;;7533616;22;82184;-56
2023/10/06 06:04:58;;;;;;;11.65;4.88;;;22.30;56.80;;;;;;7511662;22;82579;-56
2023/10/06 06:07:59;;;;;;;11.23;5.47;;;22.30;56.60;;;;;;7526018;22;81734;-58
2023/10/06 06:10:59;;;;;;;10.40;5.38;;;22.20;56.80;;;;;;7521608;22;82081;-55
2023/10/06 06:14:00;;;;;;;11.75;5.47;;;22.20;57.50;;;;;;7494438;22;80926;-53
2023/10/06 06:17:01;;;;;;;13.32;5.35;;;22.20;56.80;;;;;;7472521;22;82209;-58
2023/10/06 06:20:01;;;;;;;12.65;5.20;;;22.30;56.80;;;;;;7522043;22;82192;-61
2023/10/06 06:23:02;;;;;;;12.70;5.57;;;22.30;56.60;;;;;;7495926;22;83376;-61
2023/10/06 06:26:03;;;;;;;9.82;4.25;;;22.30;56.70;;;;;;7522187;22;81850;-62
2023/10/06 06:29:03;;;;;;;11.85;5.22;;;22.30;56.90;;;;;;7528193;22;82184;-62
2023/10/06 06:32:11;;;;;;;10.70;4.80;;;22.30;56.80;;;;;;7524924;22;82132;-62
2023/10/06 06:35:13;;;;;;;12.63;5.75;;;22.30;57.20;;;;;;7526104;22;82284;-61
2023/10/06 06:38:14;;;;;;;7.65;4.20;;;22.20;56.80;;;;;;7525268;22;81919;-63
2023/10/06 06:41:15;;;;;;;12.75;4.82;;;22.30;57.30;;;;;;7520430;22;80773;-61
2023/10/06 06:44:15;;;;;;;12.13;4.90;;;22.30;56.80;;;;;;7527539;22;81842;-63
2023/10/06 06:47:16;;;;;;;9.77;4.95;;;22.30;57.70;;;;;;7523430;22;81617;-63
2023/10/06 06:50:17;;;;;;;8.32;4.70;;;22.30;57.70;;;;;;7528082;22;82093;-64
2023/10/06 06:53:20;;;;;;;8.98;4.50;;;22.30;56.90;;;;;;7527679;22;82221;-64
2023/10/06 06:56:21;;;;;;;11.05;4.93;;;22.30;57.70;;;;;;7527584;22;82484;-63
2023/10/06 06:59:21;;;;;;;8.73;4.20;;;22.30;57.10;;;;;;7527465;22;82145;-62
2023/10/06 07:02:22;;;;;;;10.73;4.63;;;22.30;57.00;;;;;;7527123;22;81943;-62
2023/10/06 07:05:23;;;;;;;10.60;5.13;;;22.30;58.10;;;;;;7527746;22;82109;-62
2023/10/06 07:08:24;;;;;;;13.65;6.50;;;22.30;58.10;;;;;;7523935;22;82464;-62
2023/10/06 07:11:24;;;;;;;12.00;5.00;;;22.20;57.50;;;;;;7526105;22;81830;-62
2023/10/06 07:14:27;;;;;;;9.25;4.70;;;22.20;57.60;;;;;;7528976;22;81211;-62
2023/10/06 07:17:28;;;;;;;9.63;4.40;;;22.20;56.80;;;;;;7527162;22;81947;-62
2023/10/06 07:20:29;;;;;;;7.15;4.05;;;22.20;57.90;;;;;;7523131;22;81855;-62
2023/10/06 07:23:30;;;;;;;9.93;4.30;;;22.20;57.00;;;;;;7524858;22;81435;-62
2023/10/06 07:26:31;;;;;;;7.82;3.72;;;22.20;57.50;;;;;;7521548;22;81596;-61
2023/10/06 07:29:31;;;;;;;8.85;3.40;;;22.30;57.00;;;;;;7526789;22;82183;-61
2023/10/06 07:32:32;;;;;;;9.52;3.65;;;22.30;56.70;;;;;;7524791;22;82377;-62
2023/10/06 07:35:47;;;;;;;8.23;3.55;;;22.40;57.00;;;;;;7523404;22;82575;-61
2023/10/06 07:38:48;;;;;;;10.27;3.88;;;22.40;56.70;;;;;;7522324;22;82022;-62
2023/10/06 07:41:48;;;;;;;9.00;4.15;;;22.40;56.30;;;;;;7523273;22;82153;-62
2023/10/06 07:44:49;;;;;;;7.18;3.90;;;22.40;56.20;;;;;;7526148;22;81803;-62
2023/10/06 07:47:50;;;;;;;8.05;4.10;;;22.40;56.30;;;;;;7522927;22;80790;-64
2023/10/06 07:50:51;;;;;;;8.82;4.47;;;22.40;56.40;;;;;;7524858;22;81715;-62
2023/10/06 07:53:52;;;;;;;10.20;4.97;;;22.40;56.40;;;;;;7529306;22;82235;-61
2023/10/06 07:56:52;;;;;;;10.93;4.50;;;22.40;56.80;;;;;;7529352;22;82323;-62
2023/10/06 07:59:53;;;;;;;8.90;4.15;;;22.40;57.10;;;;;;7529028;22;82329;-60
2023/10/06 08:02:54;;;;;;;12.93;3.90;;;22.40;56.30;;;;;;7527864;22;82269;-61
2023/10/06 08:05:55;;;;;;;10.65;5.00;;;22.50;57.10;;;;;;7525566;22;85759;-62
2023/10/06 08:08:56;;;;;;;7.50;4.47;;;22.50;57.40;;;;;;7528524;22;82062;-62
2023/10/06 08:11:57;;;;;;;7.95;3.65;;;22.40;56.50;;;;;;7524652;22;82010;-64
2023/10/06 08:14:57;;;;;;;10.32;3.95;;;22.40;58.10;;;;;;7526485;22;81882;-64
2023/10/06 08:17:58;;;;;;;8.75;4.13;;;22.40;57.50;;;;;;7528506;22;81221;-64
2023/10/06 08:21:02;;;;;;;8.93;4.38;;;22.50;57.40;;;;;;7525214;22;82021;-65
2023/10/06 08:24:03;;;;;;;7.18;4.35;;;22.50;56.60;;;;;;7523142;22;82589;-69
2023/10/06 08:27:03;;;;;;;9.40;3.95;;;22.50;58.00;;;;;;7527421;22;82351;-66
2023/10/06 08:30:09;;;;;;;9.73;4.15;;;22.60;57.40;;;;;;7523883;22;80743;-63
2023/10/06 08:33:10;;;;;;;8.27;4.28;;;22.60;57.20;;;;;;7525630;22;80360;-63
2023/10/06 08:36:10;;;;;;;10.90;4.78;;;22.60;56.90;;;;;;7528220;22;82065;-65
2023/10/06 08:39:13;;;;;;;6.53;4.10;;;22.60;56.80;;;;;;7526713;22;82138;-65
2023/10/06 08:42:15;;;;;;;9.23;4.47;;;22.60;56.50;;;;;;7524595;22;84224;-65
2023/10/06 08:45:15;;;;;;;9.85;4.78;;;22.60;56.40;;;;;;7527292;22;82117;-64
2023/10/06 08:48:16;;;;;;;8.70;4.13;;;22.70;55.60;;;;;;7533616;22;82258;-70
2023/10/06 08:51:17;;;;;;;8.13;3.38;;;22.60;56.60;;;;;;7533284;22;82047;-68
2023/10/06 08:54:19;;;;;;;9.60;4.25;;;22.60;56.20;;;;;;7525987;22;80217;-67
2023/10/06 08:57:20;;;;;;;6.32;3.20;;;22.60;56.50;;;;;;7522583;22;80467;-63
2023/10/06 09:00:24;;;;;;;7.20;3.33;;;22.60;56.30;;;;;;7523418;22;79935;-63
2023/10/06 09:03:25;;;;;;;6.82;2.92;;;22.70;56.40;;;;;;7516023;22;82115;-63
2023/10/06 09:06:25;;;;;;;8.05;3.20;;;22.80;56.30;;;;;;7530981;22;82149;-65
2023/10/06 09:09:26;;;;;;;8.38;3.72;;;22.90;56.30;;;;;;7525513;22;82238;-64
2023/10/06 09:12:29;;;;;;;8.55;3.00;;;22.90;55.80;;;;;;7525783;22;82050;-64
2023/10/06 09:15:30;;;;;;;7.05;3.40;;;23.10;56.40;;;;;;7526527;22;82068;-64
2023/10/06 09:18:34;;;;;;;6.22;2.72;;;23.10;56.00;;;;;;7523632;22;80928;-65
2023/10/06 09:21:35;;;;;;;9.40;3.63;;;23.10;56.20;;;;;;7528746;22;82237;-61
2023/10/06 09:24:35;;;;;;;7.55;3.53;;;23.20;55.80;;;;;;7527118;22;82007;-63
2023/10/06 09:27:37;;;;;;;8.93;3.22;;;23.20;55.10;;;;;;7521892;22;82482;-62
2023/10/06 09:30:38;;;;;;;9.90;3.22;;;23.20;55.80;;;;;;7527487;22;82021;-63
2023/10/06 09:33:38;;;;;;;8.80;3.55;;;23.30;54.60;;;;;;7522717;22;82327;-61
2023/10/06 09:36:42;;;;;;;9.75;3.03;;;23.30;55.10;;;;;;7527390;22;81842;-61
2023/10/06 09:39:45;;;;;;;10.98;3.25;;;23.40;54.90;;;;;;7522699;22;80461;-60
2023/10/06 09:42:46;;;;;;;6.65;2.88;;;23.40;54.80;;;;;;7521735;22;80204;-62
2023/10/06 09:45:46;;;;;;;7.50;3.58;;;23.50;54.40;;;;;;7527040;22;81930;-62
2023/10/06 09:48:47;;;;;;;7.35;3.25;;;23.50;55.00;;;;;;7526111;22;82044;-61
2023/10/06 09:51:47;;;;;;;5.47;2.60;;;23.60;55.40;;;;;;7528256;22;81905;-62
2023/10/06 09:54:48;;;;;;;8.23;3.03;;;23.60;54.70;;;;;;7526118;22;81713;-62
2023/10/06 09:57:48;;;;;;;5.68;2.63;;;23.60;54.50;;;;;;7523396;22;82209;-61
2023/10/06 10:00:49;;;;;;;6.18;2.50;;;23.50;53.70;;;;;;7506663;22;81905;-63
2023/10/06 10:03:50;;;;;;;6.47;3.35;;;23.50;53.70;;;;;;7533543;22;82655;-64
2023/10/06 10:06:51;;;;;;;5.95;3.28;;;23.50;52.90;;;;;;7529525;22;82596;-63
2023/10/06 10:09:52;;;;;;;6.43;2.50;;;23.50;53.50;;;;;;7527461;22;80937;-63
2023/10/06 10:12:53;;;;;;;9.80;2.83;;;23.60;53.60;;;;;;7522602;22;82079;-63
2023/10/06 10:15:54;;;;;;;8.38;2.63;;;23.60;53.30;;;;;;7528865;22;81541;-63
2023/10/06 10:18:56;;;;;;;10.30;2.55;;;23.70;53.60;;;;;;7519718;22;81987;-57
2023/10/06 10:21:58;;;;;;;5.03;2.13;;;23.70;53.20;;;;;;7525883;22;81683;-60
2023/10/06 10:24:58;;;;;;;5.07;2.42;;;23.80;53.40;;;;;;7526073;22;82207;-59
2023/10/06 10:27:59;;;;;;;3.58;2.13;;;23.80;53.80;;;;;;7528787;22;82108;-59
2023/10/06 10:30:59;;;;;;;3.85;2.20;;;23.80;53.90;;;;;;7523737;22;82144;-57
2023/10/06 10:34:00;;;;;;;5.03;2.58;;;23.80;53.70;;;;;;7527963;22;82267;-59
2023/10/06 10:37:04;;;;;;;5.53;2.20;;;23.80;53.30;;;;;;7526818;22;82120;-54
2023/10/06 10:40:07;;;;;;;7.15;2.20;;;23.80;53.30;;;;;;7529492;22;82253;-53
2023/10/06 10:43:10;;;;;;;5.80;2.30;;;23.70;53.30;;;;;;7527977;22;82293;-56
2023/10/06 10:46:14;;;;;;;6.35;3.05;;;23.80;52.70;;;;;;7528216;22;81603;-52
2023/10/06 10:49:15;;;;;;;9.23;2.67;;;23.80;52.30;;;;;;7526187;22;81600;-56
2023/10/06 10:52:16;;;;;;;5.47;2.63;;;23.80;52.30;;;;;;7525315;22;81999;-53
2023/10/06 10:55:16;;;;;;;6.03;2.33;;;23.80;52.40;;;;;;7524694;22;81509;-55
2023/10/06 10:58:17;;;;;;;8.50;2.70;;;23.90;52.40;;;;;;7529122;22;81731;-52
2023/10/06 11:01:17;;;;;;;6.95;2.40;;;23.90;52.30;;;;;;7525689;22;81988;-54
2023/10/06 11:04:18;;;;;;;5.40;2.58;;;23.80;52.20;;;;;;7531633;22;81626;-50
2023/10/06 11:07:18;;;;;;;7.10;2.17;;;23.70;51.10;;;;;;7531364;22;81889;-52
2023/10/06 11:10:21;;;;;;;5.45;2.78;;;23.80;52.00;;;;;;7526395;22;82338;-52
2023/10/06 11:13:21;;;;;;;4.80;2.47;;;23.80;51.60;;;;;;7529080;22;82080;-52
2023/10/06 11:16:23;;;;;;;6.85;2.70;;;23.80;51.70;;;;;;7519542;22;81709;-49
2023/10/06 11:19:24;;;;;;;5.95;2.75;;;23.90;52.10;;;;;;7530624;22;82308;-49
2023/10/06 11:22:27;;;;;;;4.13;2.13;;;24.00;51.70;;;;;;7531741;22;82785;-50
2023/10/06 11:25:27;;;;;;;6.53;2.10;;;24.00;52.00;;;;;;7526485;22;82159;-54
2023/10/06 11:28:32;;;;;;;5.10;2.55;;;24.00;52.60;;;;;;7501381;22;82047;-54
2023/10/06 11:31:34;;;;;;;5.00;1.93;;;24.00;51.80;;;;;;7530063;22;82362;-52
2023/10/06 11:34:37;;;;;;;5.40;2.33;;;24.00;51.90;;;;;;7527864;22;82320;-51
2023/10/06 11:37:38;;;;;;;4.43;2.47;;;24.00;51.30;;;;;;7526829;22;80536;-51
2023/10/06 11:40:40;;;;;;;6.47;2.22;;;24.00;51.10;;;;;;7522375;22;81945;-54
2023/10/06 11:43:40;;;;;;;6.43;2.50;;;24.00;50.70;;;;;;7521404;22;82165;-55
2023/10/06 11:46:41;;;;;;;5.70;2.30;;;24.00;50.50;;;;;;7525662;22;81426;-52
2023/10/06 11:49:42;;;;;;;4.30;2.35;;;24.00;50.20;;;;;;7523387;22;82254;-53
2023/10/06 11:52:43;;;;;;;6.18;2.15;;;24.00;50.40;;;;;;7527419;22;81756;-58
2023/10/06 11:55:44;;;;;;;4.53;2.15;;;24.10;50.20;;;;;;7527437;22;81923;-58
2023/10/06 11:58:45;;;;;;;6.35;2.20;;;24.10;50.70;;;;;;7522032;22;81097;-57
2023/10/06 12:01:45;;;;;;;4.40;2.05;;;24.10;50.70;;;;;;7525874;22;80943;-59
2023/10/06 12:04:46;;;;;;;4.50;2.50;;;24.10;51.10;;;;;;7526944;22;81930;-59
2023/10/06 12:07:47;;;;;;;4.32;2.13;;;24.20;50.30;;;;;;7528083;22;82147;-58
2023/10/06 12:10:47;;;;;;;4.50;2.25;;;24.20;50.50;;;;;;7511547;22;82003;-62
2023/10/06 12:13:48;;;;;;;6.10;1.92;;;24.20;50.00;;;;;;7512637;22;82345;-63
2023/10/06 12:16:48;;;;;;;5.25;2.45;;;24.20;50.70;;;;;;7521536;22;81971;-63
2023/10/06 12:19:49;;;;;;;8.65;3.17;;;24.30;49.20;;;;;;7520315;22;81289;-62
2023/10/06 12:22:50;;;;;;;5.65;2.13;;;24.30;49.10;;;;;;7527403;22;81916;-70
2023/10/06 12:25:51;;;;;;;9.57;2.05;;;24.30;48.50;;;;;;7525885;22;82005;-69
2023/10/06 12:28:53;;;;;;;10.75;2.33;;;24.40;49.50;;;;;;7520626;22;81792;-66
2023/10/06 12:31:56;;;;;;;3.53;1.85;;;24.40;49.80;;;;;;7529922;22;81925;-63
2023/10/06 12:34:59;;;;;;;6.68;2.10;;;24.40;49.50;;;;;;7527955;22;81870;-66
2023/10/06 12:38:00;;;;;;;5.88;2.13;;;24.40;50.30;;;;;;7527515;22;81977;-63
2023/10/06 12:41:00;;;;;;;4.80;2.25;;;24.40;49.90;;;;;;7525914;22;81906;-64
2023/10/06 12:44:04;;;;;;;8.30;2.28;;;24.50;50.30;;;;;;7527937;22;82294;-66
2023/10/06 12:47:04;;;;;;;5.22;2.90;;;24.50;49.50;;;;;;7527075;22;82162;-64
2023/10/06 12:50:06;;;;;;;2.88;1.80;;;24.60;49.20;;;;;;7523715;22;82006;-65
2023/10/06 12:53:08;;;;;;;5.90;2.10;;;24.60;49.80;;;;;;7528336;22;81727;-66
2023/10/06 12:56:12;;;;;;;5.85;1.67;;;24.60;49.10;;;;;;7526293;22;81819;-72
2023/10/06 12:59:13;;;;;;;3.70;1.70;;;24.60;48.90;;;;;;7529100;22;82510;-67
2023/10/06 13:02:13;;;;;;;5.10;2.20;;;24.60;49.40;;;;;;7524453;22;81912;-68
2023/10/06 13:05:16;;;;;;;4.50;2.00;;;24.60;49.20;;;;;;7527829;22;80391;-69
2023/10/06 13:08:17;;;;;;;9.70;2.22;;;24.60;48.50;;;;;;7522996;22;82099;-66
2023/10/06 13:11:18;;;;;;;4.82;2.00;;;24.60;48.80;;;;;;7522752;22;82058;-65
2023/10/06 13:14:18;;;;;;;7.07;2.30;;;24.60;48.60;;;;;;7522861;22;80603;-65
2023/10/06 13:17:19;;;;;;;5.75;2.05;;;24.60;48.80;;;;;;7525373;22;80813;-62
2023/10/06 13:20:19;;;;;;;11.48;2.45;;;24.50;49.00;;;;;;7525706;22;81379;-63
2023/10/06 13:23:26;;;;;;;4.70;1.98;;;24.50;48.40;;;;;;7519990;22;82099;-55
2023/10/06 13:26:28;;;;;;;5.35;2.00;;;24.50;48.70;;;;;;7526249;22;82076;-56
2023/10/06 13:29:28;;;;;;;2.97;1.60;;;24.50;48.40;;;;;;7525902;22;81896;-56
2023/10/06 13:32:29;;;;;;;3.88;1.65;;;24.50;48.20;;;;;;7678007;22;80273;-55
2023/10/06 13:35:29;;;;;;;4.53;1.50;;;24.50;47.80;;;;;;7650611;22;83412;-56
2023/10/06 13:38:33;;;;;;;4.47;1.65;;;24.50;47.70;;;;;;7674673;22;79989;-55
2023/10/06 13:41:40;;;;;;;7.47;1.80;;;24.40;47.90;;;;;;7646379;22;83609;-55
2023/10/06 13:44:40;;;;;;;8.63;2.00;;;24.40;47.80;;;;;;7674209;22;80801;-54
2023/10/06 13:47:42;;;;;;;3.53;1.73;;;24.50;48.20;;;;;;7674293;22;80900;-55
2023/10/06 13:50:43;;;;;;;5.07;1.73;;;24.40;48.30;;;;;;7673616;22;80247;-52
2023/10/06 13:53:44;;;;;;;3.75;1.60;;;24.40;47.80;;;;;;7677663;22;80593;-53
2023/10/06 13:56:44;;;;;;;3.15;1.52;;;24.40;48.00;;;;;;7678272;22;80273;-53
2023/10/06 13:59:46;;;;;;;7.15;1.90;;;24.40;48.10;;;;;;7677308;22;81324;-63
2023/10/06 14:02:49;;;;;;;4.20;1.63;;;24.40;47.40;;;;;;7678202;22;80409;-63
2023/10/06 14:05:59;;;;;;;3.15;1.75;;;24.40;47.20;;;;;;7650422;22;82747;-63
2023/10/06 14:08:59;;;;;;;4.15;2.35;;;24.30;47.30;;;;;;7677318;22;84735;-62
2023/10/06 14:12:02;;;;;;;7.57;2.30;;;24.30;47.50;;;;;;7678032;22;80448;-64
2023/10/06 14:15:20;;;;;;;7.35;2.58;;;24.30;47.40;;;;;;7678384;22;80406;-61
2023/10/06 14:18:24;;;;;;;5.88;2.03;;;24.20;47.40;;;;;;7677662;22;82172;-63
2023/10/06 14:21:25;;;;;;;7.68;2.58;;;24.20;47.90;;;;;;7676148;22;80430;-62
2023/10/06 14:24:27;;;;;;;5.25;1.80;;;24.20;48.00;;;;;;7677268;22;80434;-63
2023/10/06 14:27:27;;;;;;;10.38;2.10;;;24.20;48.30;;;;;;7677246;22;81070;-63
2023/10/06 14:30:29;;;;;;;5.97;1.70;;;24.20;48.30;;;;;;7678154;22;80354;-62
2023/10/06 14:33:39;;;;;;;3.40;1.70;;;24.10;48.80;;;;;;7679193;22;80787;-64
2023/10/06 14:36:39;;;;;;;8.27;2.00;;;24.10;49.10;;;;;;7677816;22;80455;-64
2023/10/06 14:45:57;;;;;;;4.40;1.80;;;24.10;49.60;;;;;;7678935;22;82708;-70
2023/10/06 14:46:36;;;;;;;3.25;1.95;;;24.10;49.80;;;;;;7674452;22;80623;-61
2023/10/06 14:49:39;;;;;;;8.43;2.05;;;24.20;49.80;;;;;;7677629;22;81790;-63
2023/10/06 14:52:40;;;;;;;6.05;2.20;;;24.20;50.40;;;;;;7668668;22;80478;-64
2023/10/06 14:55:41;;;;;;;3.88;1.90;;;24.20;49.40;;;;;;7679652;22;80296;-66
2023/10/06 14:58:44;;;;;;;6.47;1.70;;;24.20;49.80;;;;;;7678687;22;80622;-68
2023/10/06 15:01:45;;;;;;;5.35;2.20;;;24.20;50.00;;;;;;7676990;22;80469;-66
2023/10/06 15:04:46;;;;;;;4.90;2.10;;;24.20;49.90;;;;;;7682336;22;79880;-64
2023/10/06 15:07:46;;;;;;;4.72;1.98;;;24.20;49.80;;;;;;7677125;22;80440;-64
2023/10/06 15:10:48;;;;;;;5.63;1.77;;;24.20;49.90;;;;;;7682237;22;82203;-67
2023/10/06 15:13:48;;;;;;;2.78;2.13;;;24.20;49.70;;;;;;7682475;22;80045;-65
2023/10/06 15:16:49;;;;;;;3.25;2.00;;;24.20;49.90;;;;;;7684153;22;80835;-63
2023/10/06 15:19:50;;;;;;;8.30;2.42;;;24.20;49.80;;;;;;7679565;22;80415;-68
2023/10/06 15:22:51;;;;;;;5.03;2.17;;;24.20;49.90;;;;;;7659045;22;80880;-62
2023/10/06 15:25:51;;;;;;;2.95;1.70;;;24.20;50.00;;;;;;7680759;22;80280;-62
2023/10/06 15:28:55;;;;;;;11.95;2.50;;;24.10;49.90;;;;;;7680004;22;87781;-64
2023/10/06 15:31:56;;;;;;;3.13;1.60;;;24.10;49.90;;;;;;7681332;22;80879;-56
2023/10/06 15:34:56;;;;;;;4.60;2.55;;;24.10;50.20;;;;;;7680178;22;80097;-56
2023/10/06 15:37:57;;;;;;;7.10;1.60;;;24.10;50.20;;;;;;7676550;22;80467;-58
2023/10/06 15:40:57;;;;;;;3.58;1.75;;;24.10;50.30;;;;;;7681390;22;80512;-55
2023/10/06 15:43:58;;;;;;;3.15;1.83;;;24.10;50.40;;;;;;7681669;22;80488;-57
2023/10/06 15:46:59;;;;;;;7.82;1.90;;;24.00;50.50;;;;;;7683245;22;80418;-59
2023/10/06 15:50:00;;;;;;;6.10;2.10;;;24.00;50.50;;;;;;7680229;22;80398;-67
2023/10/06 15:53:00;;;;;;;2.53;1.90;;;24.00;50.50;;;;;;7682028;22;80364;-70